Datum max min   Außentemperatur Tagesdurchschnitt Außenfeuchte Tagesdurchschnitt Taupunkt Tagesdurchschnitt Windchill Tagesdurchschnitt Windgeschwindigkeit Tagesdurchschnitt   Mindesttemperatur Höchsttemperatur Höchste Windgeschwindigkeit  Tägliche Niederschlagsmenge 
  °C % °C °C km/h   °C °C km/h mm/m²
 
mittelwert
01.01.1974     1024,7 -3,5           -4,9 -1,0   0,0
02.01.1974     1016,7 -1,6           -5,0 -0,8   0,0
03.01.1974     1013,4 -1,0           -1,8 -0,4   0,0
04.01.1974     1019,7 -2,5           -3,2 -0,7   0,0
05.01.1974     1019,1 -3,7           -4,7 -2,1   0,0
06.01.1974     1013,5 -1,1           -4,9 -0,5   5,1
07.01.1974     1015,4 1,0           -1,4 2,0   2,1
08.01.1974     1016,5 0,6           -0,4 1,9   0,6
09.01.1974     1011,3 0,4           -0,8 1,0   0,0
10.01.1974     1015,4 -0,5           -2,5 0,5   0,0
11.01.1974     1017,0 2,1           0,1 4,8   0,8
12.01.1974     1023,9 1,5           -1,5 3,6   0,0
13.01.1974     1018,9 0,9           -0,2 2,5   0,0
14.01.1974     1018,7 1,0           -2,1 1,8   0,0
15.01.1974     1016,7 5,9           1,4 7,0   1,6
16.01.1974     1015,1 5,3           1,4 7,5   7,4
17.01.1974     1014,1 1,2           0,1 7,5   7,2
18.01.1974     1021,1 4,0           -0,2 5,0   14,8
19.01.1974     1023,8 5,4           4,6 6,1   0,1
20.01.1974     1026,9 2,6           2,0 5,1   0,0
21.01.1974     1023,8 0,3           -1,5 5,0   0,0
22.01.1974     1021,8 -1,1           -4,7 -0,8   0,8
23.01.1974     1019,9 2,0           -1,0 2,7   1,2
24.01.1974     1016,3 2,0           1,4 3,0   0,4
25.01.1974     1017,1 2,4           1,5 4,4   0,1
26.01.1974     1015,4 -0,2           -1,4 2,4   0,0
27.01.1974     1013,1 1,0           -1,6 2,2   1,5
28.01.1974     1015,5 1,5           0,0 4,6   0,0
29.01.1974     1012,6 2,4           0,0 4,4   0,0
30.01.1974     1018,6 1,0           -2,7 3,7   0,0
31.01.1974     1017,3 1,0           -0,5 4,1   0,0
01.02.1974     1015,3 0,6           -0,6 2,6   0,0
02.02.1974     1015,3 1,0           -1,2 4,5   0,0
03.02.1974     1012,7 0,1           -1,5 0,8   0,0
04.02.1974     1011,1 0,5           0,0 1,1   0,2
05.02.1974     1000,3 1,1           0,0 2,4   5,0
06.02.1974     976,9 1,0           -0,7 3,5   6,7
07.02.1974     987,4 -1,0           -1,6 0,4   1,2
08.02.1974     1007,8 -0,2           -1,9 0,9   1,1
09.02.1974     1005,8 4,8           -1,2 6,5   4,8
10.02.1974     1012,1 4,4           3,2 7,6   0,0
11.02.1974     1002,5 6,1           0,6 13,9   0,0
12.02.1974     1001,7 5,9           1,6 10,3   0,0
13.02.1974     1000,9 3,6           1,6 8,5   0,0
14.02.1974     1006,5 3,0           0,3 6,7   0,0
15.02.1974     1005,5 2,4           -2,0 5,8   0,0
16.02.1974     1005,9 1,9           -2,0 8,7   0,0
17.02.1974     1010,2 2,8           0,2 9,3   0,0
18.02.1974     1011,5 0,8           -1,0 1,8   0,5
19.02.1974     1007,5 -0,2           -0,9 1,3   2,6
20.02.1974     1018,3 -3,9           -5,2 -0,9   0,1
21.02.1974     1020,2 -0,5           -6,4 0,4   0,5
22.02.1974     1016,2 0,4           -0,3 1,1   9,5
23.02.1974     1014,7 0,0           -0,5 0,5   4,1
24.02.1974     1024,3 -1,4           -2,3 0,3   0,0
25.02.1974     1025,0 -1,6           -2,4 -0,7   0,9
26.02.1974     1026,6 -3,7           -4,2 -1,7   0,3
27.02.1974     1023,7 -1,4           -4,9 -0,3   0,0
28.02.1974     1017,0 -1,8           -4,2 1,9   0,0
01.03.1974     1009,4 -1,9           -6,8 1,6   0,0
02.03.1974     1008,9 -0,6           -3,1 2,3   0,0
03.03.1974     1014,2 -0,5           -5,0 3,2   0,0
04.03.1974     1010,2 1,7           -3,1 4,0   0,0
05.03.1974     1012,2 1,6           0,7 2,7   1,4
06.03.1974     1020,7 -1,2           -2,8 1,2   0,3
07.03.1974     1023,9 -1,8           -3,7 -1,3   0,0
08.03.1974     1021,5 -2,4           -3,1 -0,7   0,0
09.03.1974     1019,1 -0,8           -3,4 0,8   0,1
10.03.1974     1020,2 0,0           -1,8 1,0   0,0
11.03.1974     1022,2 0,9           -0,7 4,5   0,0
12.03.1974     1020,3 1,8           -2,7 7,2   1,8
13.03.1974     1014,2 1,7           -2,7 5,7   1,3
14.03.1974     1009,5 1,1           0,0 3,0   5,0
15.03.1974     1011,8 1,4           0,0 4,7   0,1
16.03.1974     1001,4 9,0           -2,3 5,4   4,2
17.03.1974     1005,4 6,4           2,5 8,5   4,0
18.03.1974     1003,0 9,1           2,9 12,6   6,4
19.03.1974     1010,6 5,2           3,0 8,4   0,0
20.03.1974     1012,3 10,1           3,9 17,4   0,0
21.03.1974     1018,7 9,8           4,0 19,5   0,0
22.03.1974     1019,1 6,9           6,2 8,6   0,0
23.03.1974     1016,6 6,8           1,9 12,8   0,0
24.03.1974     1019,1 6,6           2,2 13,8   0,0
25.03.1974     1016,6 10,0           2,1 15,4   0,0
26.03.1974     1013,1 10,0           5,4 16,0   0,0
27.03.1974     1011,9 10,2           3,0 18,5   0,0
28.03.1974     1012,6 10,8           2,0 18,3   0,0
29.03.1974     1014,9 9,9           5,1 16,8   0,1
30.03.1974     1020,6 9,3           2,1 16,3   0,0
31.03.1974     1019,5 8,6           4,4 13,7   0,0
01.04.1974     1014,9 7,0           5,0 13,8   8,3
02.04.1974     1015,5 5,4           1,3 10,1   0,0
03.04.1974     1018,5 8,6           -0,6 16,0   0,0
04.04.1974     1017,5 8,3           1,8 14,4   0,0
05.04.1974     1018,2 6,4           3,6 12,2   0,0
06.04.1974     1021,0 7,8           0,4 14,8   0,0
07.04.1974     1021,9 8,6           1,7 13,5   0,0
08.04.1974     1020,2 6,9           1,4 13,4   0,0
09.04.1974     1015,7 8,9           -1,6 17,8   0,0
10.04.1974     1007,1 10,8           0,7 19,7   0,0
11.04.1974     1000,1 11,8           2,5 20,4   0,0
12.04.1974     1004,7 5,2           2,7 11,5   0,0
13.04.1974     1011,9 2,5           -1,1 8,8   0,0
14.04.1974     1011,5 2,4           -4,0 7,7   0,0
15.04.1974     1009,1 0,9           -3,4 3,9   7,5
16.04.1974     1015,0 0,3           -0,6 2,8   3,6
17.04.1974     1018,9 0,8           -2,8 5,0   2,3
18.04.1974     1020,3 1,7           -2,7 6,5   0,0
19.04.1974     1023,5 4,0           -1,1 9,9   0,0
20.04.1974     1018,7 6,3           -1,7 12,4   0,3
21.04.1974     1017,1 4,4           1,7 9,2   1,3
22.04.1974     1018,7 6,0           2,0 10,3   0,0
23.04.1974     1016,5 5,0           1,6 9,8   0,0
24.04.1974     1013,8 3,2           -0,9 8,3   0,3
25.04.1974     1010,6 3,6           -1,0 6,6   0,9
26.04.1974     1009,5 0,7           -1,5 4,0   0,6
27.04.1974     1010,2 4,3           -1,4 9,7   0,0
28.04.1974     1006,1 10,1           2,1 14,4   0,0
29.04.1974     1001,5 11,6           7,0 16,9   5,7
30.04.1974     1001,0 9,5           6,7 13,1   0,1
01.05.1974     1003,4 8,6           7,0 11,5   0,0
02.05.1974     1006,5 2,9           6,2 11,7   0,0
03.05.1974     1004,5 9,1           3,2 14,0   0,0
04.05.1974     1000,3 8,4           4,2 12,7   2,7
05.05.1974     1003,1 4,2           4,2 8,6   5,4
06.05.1974     1010,3 1,2           0,4 4,8   5,0
07.05.1974     1016,9 1,6           0,2 2,3   0,7
08.05.1974     1018,9 5,6           1,6 10,6   0,0
09.05.1974     1016,1 6,8           -0,9 14,2   0,0
10.05.1974     1010,9 10,8           1,8 16,1   3,7
11.05.1974     1011,7 8,9           7,5 13,5   20,8
12.05.1974     1019,1 9,0           7,4 13,1   0,1
13.05.1974     1019,5 12,4           3,0 19,0   2,8
14.05.1974     1017,9 8,6           6,1 13,0   12,9
15.05.1974     1018,3 8,0           6,1 11,8   0,1
16.05.1974     1016,1 7,5           2,5 12,7   0,0
17.05.1974     1020,9 7,0           0,4 8,5   0,0
18.05.1974     1024,5 11,5           4,4 17,6   0,0
19.05.1974     1021,9 15,0           5,7 21,0   0,0
20.05.1974     1019,4 12,8           8,7 20,0   4,2
21.05.1974     1019,7 13,0           7,2 16,8   1,6
22.05.1974     1010,1 7,8           5,6 13,0   7,1
23.05.1974     1008,5 7,1           3,7 11,1   2,5
24.05.1974     1009,5 7,0           2,3 11,2   1,4
25.05.1974     1015,3 9,0           0,9 13,7   0,0
26.05.1974     1018,2 10,5           4,3 16,2   0,0
27.05.1974     1014,2 12,7           6,5 18,8   0,0
28.05.1974     1008,9 13,7           5,2 17,5   0,0
29.05.1974     1010,7 10,4           7,9 15,1   0,0
30.05.1974     1015,9 9,8           2,7 16,3   2,2
31.05.1974     1012,2 12,0           5,0 17,1   5,2
01.06.1974     1019,1 10,6           9,4 12,8   4,3
02.06.1974     1026,1 11,7           8,5 16,6   0,1
03.06.1974     1022,5 14,2           9,6 22,3   4,9
04.06.1974     1022,6 11,6           7,0 16,7   0,0
05.06.1974     1017,5 12,5           4,2 19,2   3,6
06.06.1974     1013,1 12,4           8,9 16,6   2,3
07.06.1974     1017,8 5,4           4,5 10,9   3,8
08.06.1974     1014,7 8,8           4,5 12,5   3,5
09.06.1974     1008,7 7,0           5,3 11,0   1,0
10.06.1974     1009,0 9,1           1,2 14,5   0,1
11.06.1974     1013,4 9,2           5,9 13,6   7,0
12.06.1974     1014,2 6,6           4,6 10,0   6,9
13.06.1974     1011,0 11,0           5,8 13,5   18,2
14.06.1974     1013,5 12,3           10,0 17,7   2,3
15.06.1974     1015,1 13,4           6,2 19,3   0,0
16.06.1974     1014,2 14,2           6,6 19,7   0,1
17.06.1974     1011,7 16,0           5,3 21,8   0,0
18.06.1974     1014,7 13,0           11,3 16,9   6,7
19.06.1974     1020,7 12,4           9,6 15,5   0,0
20.06.1974     1019,8 10,9           8,2 16,5   5,7
21.06.1974     1017,0 12,6           4,1 18,1   0,0
22.06.1974     1014,9 14,3           6,4 20,0   0,5
23.06.1974     1012,5 14,7           6,9 19,7   1,2
24.06.1974     1012,2 13,2           7,8 18,4   0,0
25.06.1974     1012,2 16,4           10,0 21,7   0,0
26.06.1974     1007,0 17,5           8,4 21,4   2,2
27.06.1974     1002,2 13,0           11,7 19,1   11,7
28.06.1974     1003,7 13,2           10,4 16,4   2,4
29.06.1974     1006,9 13,4           9,1 17,9   1,0
30.06.1974     1013,8 14,6           8,9 19,0   7,4
01.07.1974     1013,4 13,0           12,0 15,4   3,9
02.07.1974     1020,5 12,2           10,8 16,9   0,0
03.07.1974     1011,4 13,0           5,6 19,0   3,3
04.07.1974     1016,2 10,7           7,8 14,8   0,0
05.07.1974     1015,1 14,0           9,0 17,9   0,0
06.07.1974     1013,4 12,9           9,0 19,7   10,6
07.07.1974     1018,7 10,1           6,5 13,9   0,1
08.07.1974     1020,5 12,7           6,0 18,1   0,8
09.07.1974     1016,9 14,2           10,8 17,5   7,2
10.07.1974     1018,6 13,6           9,8 17,3   3,9
11.07.1974     1015,4 13,0           11,8 14,7   11,2
12.07.1974     1015,4 12,4           9,5 18,5   0,0
13.07.1974     1011,8 15,3           7,9 18,6   1,8
14.07.1974     1012,7 13,5           11,3 16,9   12,8
15.07.1974     1017,9 14,4           9,4 19,3   0,0
16.07.1974     1013,5 16,9           10,0 22,3   0,0
17.07.1974     1012,3 13,6           12,3 17,2   0,4
18.07.1974     1014,3 10,6           9,8 12,4   10,8
19.07.1974     1018,7 10,8           9,0 13,9   0,0
20.07.1974     1016,3 11,2           8,3 12,8   5,5
21.07.1974     1017,9 12,6           9,7 15,9   1,2
22.07.1974     1019,3 14,7           8,6 20,2   0,0
23.07.1974     1015,9 17,3           9,8 22,7   2,0
24.07.1974     1011,3 11,7           8,9 17,5   10,4
25.07.1974     1014,7 9,6           8,0 14,4   5,6
26.07.1974     1018,6 11,6           6,4 16,2   0,0
27.07.1974     1016,5 15,3           8,4 20,5   0,0
28.07.1974     1019,3 17,1           9,9 22,7   0,0
29.07.1974     1020,7 17,7           11,0 23,0   0,0
30.07.1974     1017,3 18,6           11,4 24,0   0,0
31.07.1974     1015,9 19,0           10,4 24,5   0,0
01.08.1974     1015,5 19,8           15,6 25,7   0,0
02.08.1974     1016,7 18,4           13,0 24,7   0,0
03.08.1974     1018,2 18,7           13,7 25,5   0,0
04.08.1974     1015,7 20,8           12,7 28,7   0,0
05.08.1974     1018,9 14,1           12,5 18,1   1,7
06.08.1974     1024,2 12,4           8,9 17,6   0,0
07.08.1974     1017,9 13,3           4,9 20,4   0,0
08.08.1974     1009,9 13,8           7,6 18,6   1,8
09.08.1974     1010,7 13,2           11,4 18,0   2,0
10.08.1974     1010,2 11,2           10,2 15,3   1,5
11.08.1974     1010,5 10,2           9,4 13,6   7,7
12.08.1974     1017,0 13,4           9,7 17,2   1,2
13.08.1974     1017,7 16,1           12,2 21,5   0,1
14.08.1974     1019,5 20,6           13,2 27,5   0,0
15.08.1974     1023,7 22,4           15,5 28,9   0,0
16.08.1974     1021,0 22,2           13,2 30,5   0,0
17.08.1974     1018,7 23,2           14,2 30,0   20,5
18.08.1974     1020,3 15,2           13,4 20,6   0,3
19.08.1974     1023,9 11,6           10,7 13,8   0,9
20.08.1974     1025,0 10,0           8,8 11,4   1,8
21.08.1974     1021,5 12,0           9,3 15,4   0,0
22.08.1974     1018,1 14,4           10,3 21,3   0,0
23.08.1974     1018,6 14,2           10,4 19,5   0,0
24.08.1974     1019,5 15,0           8,1 21,6   0,0
25.08.1974     1019,0 16,4           10,1 23,1   0,0
26.08.1974     1015,4 17,8           10,6 24,5   0,5
27.08.1974     1016,9 12,4           11,0 17,0   8,4
28.08.1974     1021,7 11,6           9,2 15,9   0,0
29.08.1974     1017,1 15,3           9,1 21,5   0,0
30.08.1974     1015,5 17,7           10,9 24,5   0,0
31.08.1974     1011,9 17,2           9,2 24,0   1,5
01.09.1974     1012,9 14,1           10,4 19,7   0,2
02.09.1974     1012,6 17,3           11,0 23,5   0,0
03.09.1974     1014,1 12,4           10,5 17,5   2,8
04.09.1974     1015,9 10,5           8,8 13,9   1,1
05.09.1974     1013,0 16,2           9,4 22,1   0,0
06.09.1974     1008,5 13,0           10,1 23,2   0,4
07.09.1974     1010,7 13,2           9,5 17,2   0,0
08.09.1974     1014,7 12,8           11,0 17,8   0,0
09.09.1974     1015,9 16,4           7,7 25,2   12,7
10.09.1974     1027,0 10,9           8,6 16,4   0,0
11.09.1974     1026,5 11,7           4,3 18,9   0,0
12.09.1974     1021,5 14,0           5,1 22,9   0,0
13.09.1974     1020,9 17,8           10,1 23,7   0,0
14.09.1974     1023,0 15,0           11,8 21,1   0,0
15.09.1974     1020,5 15,2           10,9 21,9   0,0
16.09.1974     1018,9 16,0           10,5 22,5   0,0
17.09.1974     1018,5 16,7           11,2 24,1   0,0
18.09.1974     1020,2 13,6           10,1 19,9   0,2
19.09.1974     1021,9 10,3           7,9 12,9   0,0
20.09.1974     1015,9 9,8           6,8 15,6   0,0
21.09.1974     1013,1 8,0           0,2 15,8   0,0
22.09.1974     1011,3 8,8           4,4 13,6   0,0
23.09.1974     1010,7 9,8           4,2 13,7   0,5
24.09.1974     1000,6 8,8           7,4 11,1   5,0
25.09.1974     997,5 5,7           4,8 9,5   9,0
26.09.1974     1001,1 5,5           3,9 8,3   1,7
27.09.1974     1011,7 7,6           3,5 9,9   0,0
28.09.1974     1009,1 10,5           6,0 16,9   23,3
29.09.1974     1011,7 6,2           3,9 10,0   3,2
30.09.1974     1015,1 5,4           3,2 11,4   0,0
01.10.1974     1017,8 4,6           -1,8 10,8   24,0
02.10.1974     1014,1 4,3           3,0 6,6   1,1
03.10.1974     1011,1 4,2           2,6 7,6   7,9
04.10.1974     1013,1 4,1           1,6 7,0   0,6
05.10.1974     1013,5 5,6           3,1 8,6   1,4
06.10.1974     1013,0 5,3           4,1 6,7   0,7
07.10.1974     1002,5 5,8           1,4 9,1   0,4
08.10.1974     1004,7 5,0           2,3 7,7   0,0
09.10.1974     1008,3 4,6           3,3 5,7   3,0
10.10.1974     1011,9 5,2           3,8 7,7   4,9
11.10.1974     1014,5 5,4           3,0 8,5   0,3
12.10.1974     1015,5 3,6           2,0 6,4   0,0
13.10.1974     1015,8 3,8           1,6 5,8   0,5
14.10.1974     1016,5 3,7           1,6 5,7   0,2
15.10.1974     1016,3 2,4           -0,2 5,4   0,0
16.10.1974     1013,8 2,1           0,2 3,3   5,0
17.10.1974     1016,2 2,7           1,2 3,3   0,1
18.10.1974     1018,5 5,0           2,2 7,4   0,6
19.10.1974     1005,8 4,8           4,2 6,3   8,1
20.10.1974     995,5 0,8           0,0 4,4   14,6
21.10.1974     998,2 1,8           -0,5 2,6   5,6
22.10.1974     991,7 1,6           0,4 2,6   25,8
23.10.1974     997,3 2,0           0,2 2,5   8,7
24.10.1974     1014,2 3,9           1,8 4,9   3,2
25.10.1974     1012,9 4,2           3,8 5,4   9,4
26.10.1974     1009,0 2,2           0,1 4,5   2,2
27.10.1974     1002,3 3,8           -0,7 6,6   9,6
28.10.1974     996,2 1,8           0,6 3,2   4,3
29.10.1974     999,1 1,4           -0,3 4,8   2,2
30.10.1974     1003,3 0,4           -1,2 1,7   0,9
31.10.1974     1006,7 0,2           -1,5 1,5   0,6
01.11.1974     1011,4 0,6           -1,0 1,1   1,9
02.11.1974     1013,8 1,4           -0,2 2,1   3,3
03.11.1974     1017,4 2,5           1,4 4,2   1,1
04.11.1974     1015,4 2,3           0,1 4,1   1,3
05.11.1974     1022,2 0,3           -1,0 2,5   0,0
06.11.1974     1027,5 -0,5           -2,4 3,6   0,0
07.11.1974     1028,3 -0,6           -4,9 5,0   0,1
08.11.1974     1025,0 0,2           -6,0 6,3   0,0
09.11.1974     1018,7 0,3           -1,1 1,3   0,0
10.11.1974     1015,3 4,5           0,4 5,9   1,3
11.11.1974     1014,7 3,7           2,2 5,3   0,0
12.11.1974     1010,5 4,7           1,8 5,9   7,5
13.11.1974     1013,3 5,8           1,6 6,9   0,1
14.11.1974     1009,7 6,4           1,9 11,8   0,0
15.11.1974     1008,9 3,1           0,9 7,1   0,0
16.11.1974     1008,1 6,2           0,0 10,5   0,0
17.11.1974     1017,3 5,0           2,2 9,3   0,0
18.11.1974     1011,5 5,4           0,6 9,4   0,8
19.11.1974     1011,7 3,0           1,0 5,6   0,5
20.11.1974     1015,9 1,8           -1,4 4,5   0,0
21.11.1974     1016,9 4,8           0,6 7,9   0,0
22.11.1974     1014,5 3,3           2,5 4,7   8,7
23.11.1974     1015,0 6,1           2,5 9,3   0,0
24.11.1974     1013,5 4,8           3,6 6,1   0,5
25.11.1974     1005,9 2,7           1,2 5,5   10,8
26.11.1974     1006,2 0,6           -0,6 2,5   0,5
27.11.1974     1001,9 0,8           -1,1 1,1   8,1
28.11.1974     989,3 0,7           -0,6 5,6   4,0
29.11.1974     1000,2 1,0           0,5 1,8   0,6
30.11.1974     1008,7 0,8           -0,2 1,4   1,6
01.12.1974     1014,7 3,2           0,4 4,0   0,8
02.12.1974     1023,3 7,4           3,9 7,8   0,5
03.12.1974     1027,8 7,3           7,1 7,6   0,4
04.12.1974     1020,6 5,1           3,6 7,5   3,2
05.12.1974     1014,1 0,5           0,0 4,6   5,2
06.12.1974     1015,1 1,9           -1,1 3,0   11,8
07.12.1974     1013,5 5,0           2,9 6,0   25,0
08.12.1974     1014,7 7,1           6,0 7,5   9,2
09.12.1974     1016,3 6,7           6,3 7,5   0,4
10.12.1974     1015,9 1,5           0,0 6,3   1,4
11.12.1974     1004,3 -0,7           -1,4 0,6   11,7
12.12.1974     1007,5 -2,2           -2,9 -0,4   4,2
13.12.1974     1008,9 -3,7           -5,0 -1,8   1,6
14.12.1974     1020,2 -3,8           -7,4 -2,9   0,7
15.12.1974     1015,9 0,2           -2,9 0,5   1,2
16.12.1974     1013,8 0,7           -0,4 1,2   5,8
17.12.1974     997,9 0,9           -0,4 4,4   15,2
18.12.1974     1004,2 0,1           -0,4 0,9   2,8
19.12.1974     1017,7 0,4           -1,1 0,9   2,0
20.12.1974     1019,5 3,2           0,9 3,6   0,3
21.12.1974     1023,3 2,3           3,3 3,3   0,1
22.12.1974     1026,1 2,5           0,5 4,1   0,0
23.12.1974     1024,7 1,7           -0,9 6,3   0,0
24.12.1974     1016,5 1,3           -3,1 3,3   1,3
25.12.1974     1021,0 2,8           1,0 3,9   1,4
26.12.1974     1013,7 7,2           2,7 9,3   24,5
27.12.1974     1012,3 5,2           4,6 6,7   6,3
28.12.1974     1013,4 7,7           4,1 9,5   5,4
29.12.1974     1013,7 7,0           5,1 9,8   9,8
30.12.1974     1025,7 1,1           0,4 5,2   1,8
31.12.1974     1027,0 0,4           -0,2 1,1   0,6